New London, CT

12:14 AM EDT on March 27, 2015 (GMT -0400)
Fort Trumbull | | Change Station
CLOSE
Current Station
Personal Weather Station
Location: New London, CT
Elevation: 13 ft
Nearby Weather Stations

Elev 13 ft 41.35 °N, 72.10 °W | Updated 49 seconds ago

Overcast
Overcast
46.5 °F
Feels Like 41 °F
N
11.0
Wind Variable Wind from NNW
Gusts 23.0 mph

Today
High -- | Low -- °F
--% Chance of Precip.
Yesterday
High -- | Low -- °F
Precip. -- in
6:40 AM 7:07 PM
Waxing Crescent, 48% visible
Pressure 29.61 in
Visibility 10.0 miles
Clouds Overcast 1500 ft
Windchill 41 °F
Dew Point 45 °F
Humidity 95%
Rainfall 0.00 in
Snow Depth Not available.
UV 0 out of 12
Pollen .90 out of 12
Air Quality Not available.
Flu Activity Not available.
METAR KGON 270356Z AUTO 35013KT 10SM OVC015 09/08 A2961 RMK AO2 WSHFT 0316 RAE36 SLP025 P0001 T00940083

More Conditions Fewer Conditions

Pressure 29.61 in
Visibility 10.0 miles
Clouds Overcast 1500 ft
Windchill 41 °F
Dew Point 45 °F
Humidity 95%
Rainfall 0.00 in
Snow Depth Not available.
UV 0 out of 12
Pollen .90 out of 12
Air Quality Not available.
Flu Activity Not available.
METAR KGON 270356Z AUTO 35013KT 10SM OVC015 09/08 A2961 RMK AO2 WSHFT 0316 RAE36 SLP025 P0001 T00940083

More Conditions Fewer Conditions

10-Day Weather Forecast

Almanac

Astronomy

Mar. 27, 2015 Rise Set
Actual Time
Civil Twilight
Nautical Twilight
Astronomical Twilight
Moon
Length of Visible Light
Length of Day
Tomorrow will be .
, % of the Moon is Illuminated

Today's Extremes

State Highs State Lows

Community

WunderPhotos

Upload Photos

1,808,706 photos uploaded!

WunderBlogs® & News

Nearby

Air Quality

  Air Quality AQ Index Pollutant
Not available.

Snow Depth

Station Depth Elevation

Earthquake Activity

City Distance Mag. Time & Date
Minimum magnitude displayed is 2.5.

Coastal Water Temperatures

Place Temperature

Stations

Nearby Weather Stations

Station Location Temp. Windchill Dew Point Humidity Wind Precip. Elev Updated Type